Time;durP1;ratioP1;P1;durP2;ratioP2;P2;SDS_P1;SDS_P2;PMS_P1;PMS_P2;Temp;Humidity;BMP_temperature;BMP_pressure;BME280_temperature;BME280_humidity;BME280_pressure;Samples;Min_cycle;Max_cycle;Signal;HPM_P1;HPM_P2
2023/03/17 00:00:56;;;;;;;7.18;3.30;;;;;;;5.60;80.10;100744.53;6275530;22;20049;-75
2023/03/17 00:03:29;;;;;;;8.65;3.53;;;;;;;5.84;80.05;100788.78;6277734;22;20004;-76
2023/03/17 00:08:32;;;;;;;6.57;3.38;;;;;;;5.90;81.60;100816.75;6280989;22;20023;-76
2023/03/17 00:11:28;;;;;;;4.93;3.20;;;;;;;6.04;81.79;100847.72;6277787;22;20008;-77
2023/03/17 00:14:36;;;;;;;8.65;3.20;;;;;;;5.96;82.04;100839.53;6277476;22;20011;-76
2023/03/17 00:17:02;;;;;;;5.25;3.38;;;;;;;5.88;83.26;100838.97;6277220;22;20066;-76
2023/03/17 00:19:31;;;;;;;8.00;3.60;;;;;;;5.87;82.68;100839.88;6249952;22;20091;-77
2023/03/17 00:21:57;;;;;;;6.63;3.55;;;;;;;5.66;82.66;100810.91;6277200;22;20003;-75
2023/03/17 00:24:23;;;;;;;5.80;3.55;;;;;;;5.81;82.16;100826.53;6277464;22;20027;-75
2023/03/17 00:26:48;;;;;;;7.93;3.70;;;;;;;5.79;82.61;100825.72;6276918;22;20012;-76
2023/03/17 00:29:15;;;;;;;8.00;3.30;;;;;;;5.73;82.90;100820.00;6277225;22;20035;-76
2023/03/17 00:31:41;;;;;;;6.47;3.05;;;;;;;5.60;83.12;100798.34;6277126;22;20027;-79
2023/03/17 00:34:14;;;;;;;8.30;3.70;;;;;;;5.51;83.58;100785.94;6277566;22;20010;-79
2023/03/17 00:36:41;;;;;;;5.97;3.08;;;;;;;5.54;83.61;100784.97;6277517;22;20073;-78
2023/03/17 00:39:12;;;;;;;5.28;3.38;;;;;;;5.62;83.50;100811.09;6277207;22;20004;-76
2023/03/17 00:41:37;;;;;;;7.43;3.58;;;;;;;5.63;82.90;100812.75;6276686;22;20105;-77
2023/03/17 00:44:03;;;;;;;5.63;3.45;;;;;;;5.60;83.70;100818.81;6276961;22;20104;-78
2023/03/17 00:46:34;;;;;;;8.80;3.55;;;;;;;5.28;83.56;100763.03;6277307;22;20000;-75
2023/03/17 00:49:01;;;;;;;7.18;3.22;;;;;;;5.57;83.98;100811.28;6276623;22;19995;-77
2023/03/17 00:51:28;;;;;;;8.77;3.40;;;;;;;5.57;83.84;100810.44;6277336;22;20014;-76
2023/03/17 00:53:53;;;;;;;6.43;3.30;;;;;;;5.32;83.54;100773.09;6277557;22;20004;-77
2023/03/17 00:56:20;;;;;;;6.50;3.30;;;;;;;5.56;83.83;100801.09;6277010;22;20062;-79
2023/03/17 00:58:47;;;;;;;6.75;3.20;;;;;;;5.54;83.03;100790.09;6276941;22;20003;-75
2023/03/17 01:01:14;;;;;;;7.43;3.55;;;;;;;5.56;82.94;100778.06;6276777;22;20008;-75
2023/03/17 01:03:40;;;;;;;8.18;3.70;;;;;;;5.67;82.93;100793.78;6277351;22;20012;-78
2023/03/17 01:06:09;;;;;;;8.02;3.60;;;;;;;5.55;83.59;100776.41;6276974;22;20004;-77
2023/03/17 01:08:35;;;;;;;9.48;3.60;;;;;;;5.56;83.23;100778.88;6276762;22;20034;-75
2023/03/17 01:11:01;;;;;;;7.25;3.58;;;;;;;5.60;83.51;100782.13;6249897;22;20004;-75
2023/03/17 01:13:26;;;;;;;5.55;3.05;;;;;;;5.52;83.29;100773.97;6276222;22;20042;-79
2023/03/17 01:15:51;;;;;;;6.00;3.53;;;;;;;5.65;83.85;100800.72;6277439;22;20000;-78
2023/03/17 01:18:20;;;;;;;5.25;3.17;;;;;;;5.67;82.77;100801.47;6276767;22;20375;-77
2023/03/17 01:20:46;;;;;;;9.68;3.20;;;;;;;5.55;83.24;100774.66;6276908;22;20044;-78
2023/03/17 01:23:11;;;;;;;5.25;3.30;;;;;;;5.56;83.23;100778.88;6276567;22;20073;-77
2023/03/17 01:25:39;;;;;;;6.65;3.10;;;;;;;5.59;83.67;100794.13;6277152;22;20007;-75
2023/03/17 01:28:05;;;;;;;6.93;3.65;;;;;;;5.54;83.46;100784.97;6276815;22;20014;-76
2023/03/17 01:30:33;;;;;;;6.63;3.38;;;;;;;5.47;83.55;100787.78;6276381;22;20007;-76
2023/03/17 01:33:00;;;;;;;6.55;3.65;;;;;;;5.40;84.35;100786.38;6276903;22;20324;-78
2023/03/17 01:35:28;;;;;;;6.28;3.03;;;;;;;5.31;84.88;100779.09;6277081;22;20003;-77
2023/03/17 01:37:54;;;;;;;10.15;3.67;;;;;;;5.14;84.81;100759.31;6276478;22;20000;-75
2023/03/17 01:40:29;;;;;;;7.32;3.55;;;;;;;5.16;84.25;100762.66;6276695;22;20046;-76
2023/03/17 01:43:19;;;;;;;5.97;3.10;;;;;;;5.17;84.46;100761.75;6276483;22;20341;-75
2023/03/17 01:46:24;;;;;;;8.18;3.58;;;;;;;5.30;84.13;100772.28;6128597;23;20462;-75
2023/03/17 01:49:14;;;;;;;6.15;3.20;;;;;;;5.29;84.97;100785.16;6137984;23;20015;-77
2023/03/17 01:52:01;;;;;;;6.25;3.20;;;;;;;5.25;85.06;100771.66;6152980;23;20012;-74
2023/03/17 01:54:29;;;;;;;5.75;2.80;;;;;;;5.22;85.62;100768.41;6153229;23;20005;-76
2023/03/17 01:57:00;;;;;;;6.85;3.45;;;;;;;4.95;85.94;100745.63;6153285;23;20019;-76
2023/03/17 01:59:32;;;;;;;5.95;2.90;;;;;;;5.07;85.46;100763.03;6153100;23;20029;-77
2023/03/17 02:02:03;;;;;;;5.53;3.25;;;;;;;5.04;86.04;100760.59;6153246;23;20529;-75
2023/03/17 02:04:30;;;;;;;5.43;3.17;;;;;;;4.99;86.32;100757.38;6152591;23;20012;-75
2023/03/17 02:06:56;;;;;;;7.13;3.63;;;;;;;4.95;86.42;100757.59;6152962;23;20391;-75
2023/03/17 02:09:22;;;;;;;7.95;3.25;;;;;;;4.82;86.79;100740.19;6153208;23;20005;-75
2023/03/17 02:11:47;;;;;;;7.05;3.50;;;;;;;4.90;86.60;100745.78;6152967;23;20064;-78
2023/03/17 02:14:13;;;;;;;9.55;3.60;;;;;;;4.78;86.63;100715.59;6152658;23;20010;-80
2023/03/17 02:16:38;;;;;;;6.60;3.60;;;;;;;4.92;86.60;100737.22;6152911;23;20015;-78
2023/03/17 02:19:16;;;;;;;7.20;3.80;;;;;;;4.56;85.87;100677.28;6200105;22;20496;-76
2023/03/17 02:21:50;;;;;;;8.07;3.38;;;;;;;4.51;86.11;100675.78;6270505;22;20352;-77
2023/03/17 02:24:48;;;;;;;7.32;3.28;;;;;;;4.97;85.85;100745.56;6276062;22;20063;-77
2023/03/17 02:27:43;;;;;;;;;;;;;;;;;;;;;
2023/03/17 02:30:26;;;;;;;5.82;3.50;;;;;;;4.10;85.48;100585.44;6261387;22;20103;-75
2023/03/17 02:35:46;;;;;;;9.32;3.53;;;;;;;4.12;85.72;100575.97;6181856;23;20005;-75
2023/03/17 02:38:26;;;;;;;5.07;3.25;;;;;;;4.87;85.17;100681.97;6182279;23;20320;-76
2023/03/17 02:41:30;;;;;;;7.47;3.63;;;;;;;4.08;84.97;100552.28;6182283;23;20350;-75
2023/03/17 02:44:15;;;;;;;6.47;3.38;;;;;;;5.22;85.00;100710.38;6127825;23;20040;-78
2023/03/17 02:46:49;;;;;;;7.22;3.65;;;;;;;4.22;84.26;100546.59;6152465;23;20585;-78
2023/03/17 02:49:28;;;;;;;6.78;3.40;;;;;;;4.59;83.74;100604.72;6152374;23;20020;-75
2023/03/17 02:52:08;;;;;;;6.07;3.15;;;;;;;4.21;83.25;100530.44;6152523;23;20005;-77
2023/03/17 02:54:49;;;;;;;5.50;2.90;;;;;;;4.92;83.61;100650.22;6152473;23;20343;-78
2023/03/17 02:57:47;;;;;;;7.57;3.30;;;;;;;5.41;84.02;100712.97;6239946;22;20104;-77
2023/03/17 03:00:25;;;;;;;4.55;2.92;;;;;;;4.65;83.10;100591.69;6245186;23;20031;-76
2023/03/17 03:02:50;;;;;;;6.30;2.90;;;;;;;4.56;83.69;100574.16;6245460;23;20344;-79
2023/03/17 03:05:16;;;;;;;5.88;3.20;;;;;;;5.37;83.08;100709.69;6245408;22;20030;-77
2023/03/17 03:07:51;;;;;;;6.88;3.53;;;;;;;4.24;83.38;100532.88;6247853;22;20062;-76
2023/03/17 03:10:28;;;;;;;8.02;3.35;;;;;;;4.22;83.09;100542.31;6245219;23;20397;-78
2023/03/17 03:13:07;;;;;;;5.78;3.28;;;;;;;4.90;82.66;100655.41;6245929;23;20000;-78
2023/03/17 03:15:48;;;;;;;6.22;3.17;;;;;;;4.92;82.91;100643.41;6245233;23;20005;-79
2023/03/17 03:18:30;;;;;;;5.43;2.97;;;;;;;4.22;83.35;100533.81;6245347;23;20013;-76
2023/03/17 03:20:58;;;;;;;6.40;3.13;;;;;;;4.89;83.58;100644.34;6245230;23;20000;-75
2023/03/17 03:23:24;;;;;;;8.02;3.88;;;;;;;4.79;83.13;100625.16;6245427;23;20000;-79
2023/03/17 03:25:49;;;;;;;8.43;3.47;;;;;;;5.34;83.76;100727.75;6245270;23;20062;-79
2023/03/17 03:28:14;;;;;;;5.28;3.30;;;;;;;5.34;84.39;100732.06;6245396;23;20004;-75
2023/03/17 03:30:40;;;;;;;7.20;3.05;;;;;;;5.24;83.74;100715.41;6245236;23;20154;-75
2023/03/17 03:33:06;;;;;;;5.70;3.30;;;;;;;5.34;83.63;100729.50;6245415;23;20011;-78
2023/03/17 03:35:33;;;;;;;6.30;3.15;;;;;;;5.32;83.43;100731.28;6245402;23;20060;-77
2023/03/17 03:37:58;;;;;;;6.95;3.25;;;;;;;5.29;84.04;100726.28;6247602;23;20000;-79
2023/03/17 03:40:24;;;;;;;6.28;3.30;;;;;;;5.12;85.10;100701.41;6247247;23;20058;-76
2023/03/17 03:42:49;;;;;;;6.03;2.92;;;;;;;5.22;85.23;100723.16;6247257;23;20012;-75
2023/03/17 03:45:15;;;;;;;6.43;2.90;;;;;;;5.08;84.92;100710.94;6247309;23;20004;-76
2023/03/17 03:47:40;;;;;;;6.03;3.08;;;;;;;5.19;84.92;100739.47;6247750;23;20090;-79
2023/03/17 03:50:07;;;;;;;6.38;2.90;;;;;;;5.06;85.09;100722.97;6247309;23;20321;-77
2023/03/17 03:52:33;;;;;;;6.18;3.20;;;;;;;5.04;84.97;100717.09;6247187;23;20054;-78
2023/03/17 03:54:58;;;;;;;9.40;3.47;;;;;;;5.10;84.60;100742.41;6247351;23;20004;-75
2023/03/17 03:57:24;;;;;;;7.03;3.10;;;;;;;5.12;84.71;100745.75;6246961;23;20421;-78
2023/03/17 03:59:49;;;;;;;5.57;2.83;;;;;;;5.14;84.25;100745.69;6247181;23;20000;-77
2023/03/17 04:02:15;;;;;;;8.85;3.40;;;;;;;5.14;84.53;100745.69;6247038;23;20000;-76
2023/03/17 04:04:41;;;;;;;7.70;3.20;;;;;;;5.14;84.44;100751.66;6246972;23;20040;-77
2023/03/17 04:07:07;;;;;;;7.18;3.00;;;;;;;5.15;84.00;100760.16;6247270;23;20073;-76
2023/03/17 04:09:36;;;;;;;6.13;3.50;;;;;;;5.11;83.66;100746.66;6272965;22;20008;-77
2023/03/17 04:12:02;;;;;;;6.00;3.05;;;;;;;5.05;84.42;100739.22;6277286;22;20435;-77
2023/03/17 04:14:27;;;;;;;5.55;3.20;;;;;;;5.12;83.60;100739.81;6277746;22;20004;-76
2023/03/17 04:16:53;;;;;;;6.30;3.10;;;;;;;5.15;83.47;100755.03;6277535;22;20004;-77
2023/03/17 04:19:18;;;;;;;8.40;3.30;;;;;;;4.99;84.03;100736.91;6277952;22;20083;-78
2023/03/17 04:21:44;;;;;;;4.78;2.90;;;;;;;5.10;84.31;100744.97;6277120;22;20061;-78
2023/03/17 04:24:09;;;;;;;8.88;3.03;;;;;;;5.07;84.75;100746.84;6277646;22;20074;-79
2023/03/17 04:26:35;;;;;;;6.82;3.17;;;;;;;4.90;84.61;100722.75;6277476;22;20351;-76
2023/03/17 04:29:01;;;;;;;6.95;2.95;;;;;;;5.06;84.99;100743.44;6277569;22;20404;-75
2023/03/17 04:31:26;;;;;;;5.03;3.03;;;;;;;5.04;84.60;100745.25;6277261;22;20010;-75
2023/03/17 04:33:51;;;;;;;7.50;3.60;;;;;;;5.05;84.24;100754.59;6277237;22;20000;-78
2023/03/17 04:36:22;;;;;;;6.75;3.92;;;;;;;5.06;84.55;100752.84;6277168;22;20000;-76
2023/03/17 04:38:48;;;;;;;4.53;2.78;;;;;;;4.94;84.31;100722.66;6277182;22;20004;-76
2023/03/17 04:41:14;;;;;;;6.30;3.25;;;;;;;5.07;84.83;100749.41;6249983;22;20083;-79
2023/03/17 04:43:40;;;;;;;5.10;3.10;;;;;;;5.06;84.82;100747.72;6277262;22;20012;-75
2023/03/17 04:46:07;;;;;;;8.07;3.25;;;;;;;5.02;85.44;100747.03;6277223;22;20000;-75
2023/03/17 04:48:35;;;;;;;8.10;3.75;;;;;;;5.02;85.26;100757.28;6277070;22;20025;-75
2023/03/17 04:51:00;;;;;;;6.65;3.42;;;;;;;5.00;85.57;100753.94;6276708;22;20004;-74
2023/03/17 04:53:26;;;;;;;6.25;3.88;;;;;;;4.93;85.97;100738.91;6276930;22;20004;-76
2023/03/17 04:55:51;;;;;;;6.80;3.63;;;;;;;4.80;86.11;100716.34;6276889;22;20045;-79
2023/03/17 04:58:16;;;;;;;6.85;3.15;;;;;;;5.00;85.12;100747.97;6249757;22;20000;-76
2023/03/17 05:00:42;;;;;;;6.63;3.42;;;;;;;4.97;86.62;100751.50;6276826;22;19999;-80
2023/03/17 05:03:07;;;;;;;5.45;3.10;;;;;;;4.91;86.22;100741.50;6277045;22;20042;-75
2023/03/17 05:05:35;;;;;;;5.53;3.05;;;;;;;4.92;87.24;100738.06;6277124;22;20008;-76
2023/03/17 05:08:00;;;;;;;6.60;3.38;;;;;;;4.94;86.67;100738.84;6276717;22;20326;-76
2023/03/17 05:10:26;;;;;;;6.13;3.30;;;;;;;4.96;86.60;100731.09;6277190;22;20010;-78
2023/03/17 05:12:51;;;;;;;10.60;4.47;;;;;;;4.98;86.51;100731.84;6277090;22;20000;-80
2023/03/17 05:15:17;;;;;;;7.30;3.75;;;;;;;4.98;87.02;100734.41;6276886;22;20065;-76
2023/03/17 05:17:42;;;;;;;8.00;4.13;;;;;;;4.71;86.80;100693.72;6277135;22;20059;-78
2023/03/17 05:20:09;;;;;;;8.88;3.88;;;;;;;4.83;86.40;100705.19;6249663;22;20389;-76
2023/03/17 05:22:35;;;;;;;7.05;3.50;;;;;;;4.96;86.17;100723.41;6276525;22;20003;-74
2023/03/17 05:25:01;;;;;;;7.78;3.40;;;;;;;4.95;86.26;100732.00;6276955;22;20061;-76
2023/03/17 05:27:26;;;;;;;7.25;3.53;;;;;;;4.87;86.60;100732.31;6277058;22;20007;-76
2023/03/17 05:29:52;;;;;;;6.72;3.40;;;;;;;3.86;85.98;100567.63;6259493;22;20028;-74
2023/03/17 05:32:18;;;;;;;6.38;3.58;;;;;;;3.83;86.46;100551.59;6271853;22;20019;-75
2023/03/17 05:34:47;;;;;;;7.57;3.20;;;;;;;4.17;86.36;100610.69;6275268;22;20385;-74
2023/03/17 05:37:13;;;;;;;7.32;3.25;;;;;;;5.00;85.77;100743.69;6271736;22;20039;-75
2023/03/17 05:39:38;;;;;;;7.55;3.47;;;;;;;5.02;86.57;100748.78;6276421;22;20299;-76
2023/03/17 05:42:04;;;;;;;7.82;3.60;;;;;;;5.00;87.05;100753.09;6276540;22;20027;-75
2023/03/17 05:44:29;;;;;;;6.40;3.30;;;;;;;4.96;86.94;100752.41;6276875;22;20008;-77
2023/03/17 05:46:55;;;;;;;6.25;3.30;;;;;;;4.76;86.54;100722.50;6276668;22;20477;-76
2023/03/17 05:49:20;;;;;;;7.68;4.13;;;;;;;4.94;86.33;100753.38;6276179;22;20003;-74
2023/03/17 05:51:46;;;;;;;7.07;3.60;;;;;;;4.82;87.26;100722.28;6276481;22;20045;-75
2023/03/17 05:54:17;;;;;;;8.77;3.45;;;;;;;3.78;86.97;100558.63;6274798;22;20022;-77
2023/03/17 05:56:49;;;;;;;8.30;3.53;;;;;;;4.45;87.49;100670.94;6276789;22;20038;-75
2023/03/17 05:59:17;;;;;;;9.45;3.85;;;;;;;4.88;87.89;100742.47;6276114;22;19999;-76
2023/03/17 06:01:43;;;;;;;6.65;3.53;;;;;;;4.70;87.81;100704.00;6276444;22;19999;-79
2023/03/17 06:04:08;;;;;;;6.65;3.72;;;;;;;4.90;87.62;100727.03;6276557;22;20060;-75
2023/03/17 06:06:34;;;;;;;7.22;3.55;;;;;;;4.94;87.76;100732.91;6276330;22;20298;-77
2023/03/17 06:09:00;;;;;;;9.07;3.45;;;;;;;4.72;87.79;100703.06;6276776;22;20015;-79
2023/03/17 06:11:25;;;;;;;7.13;3.63;;;;;;;4.86;87.49;100718.69;6276327;22;20007;-76
2023/03/17 06:13:51;;;;;;;7.70;3.85;;;;;;;4.99;87.25;100730.97;6276386;22;20057;-77
2023/03/17 06:16:16;;;;;;;10.88;4.30;;;;;;;5.01;88.52;100734.28;6276215;22;19999;-79
2023/03/17 06:18:42;;;;;;;9.95;3.72;;;;;;;5.00;87.90;100728.34;6276385;22;20010;-77
2023/03/17 06:21:07;;;;;;;7.47;3.40;;;;;;;5.11;87.66;100733.00;6276436;22;20000;-78
2023/03/17 06:23:32;;;;;;;10.75;3.85;;;;;;;5.13;87.75;100733.78;6276011;22;20015;-75
2023/03/17 06:25:58;;;;;;;7.97;3.67;;;;;;;5.17;87.52;100738.72;6276360;22;20000;-77
2023/03/17 06:28:23;;;;;;;7.72;3.95;;;;;;;5.10;86.45;100714.25;6276143;22;20075;-76
2023/03/17 06:30:48;;;;;;;5.85;3.40;;;;;;;5.31;86.38;100735.59;6276422;22;20023;-74
2023/03/17 06:33:14;;;;;;;6.13;3.85;;;;;;;5.39;86.25;100737.78;6276226;22;20083;-76
2023/03/17 06:35:40;;;;;;;8.95;4.00;;;;;;;5.37;85.66;100721.66;6276843;22;20026;-75
2023/03/17 06:38:05;;;;;;;8.15;3.45;;;;;;;5.60;85.80;100738.59;6275843;22;20408;-75
2023/03/17 06:40:32;;;;;;;6.93;3.50;;;;;;;5.64;84.90;100729.88;6276341;22;20000;-77
2023/03/17 06:42:58;;;;;;;6.13;3.40;;;;;;;5.81;84.81;100747.91;6275884;22;20015;-76
2023/03/17 06:45:24;;;;;;;7.93;3.83;;;;;;;5.70;85.03;100712.53;6275795;22;20329;-77
2023/03/17 06:47:49;;;;;;;8.57;3.90;;;;;;;5.85;83.77;100734.06;6274795;22;20044;-76
2023/03/17 06:50:27;;;;;;;5.97;3.38;;;;;;;5.31;83.76;100617.81;6276141;22;20010;-76
2023/03/17 06:52:58;;;;;;;6.63;3.63;;;;;;;5.44;83.07;100629.16;6276007;22;20142;-76
2023/03/17 06:55:23;;;;;;;7.72;3.40;;;;;;;6.27;82.82;100740.72;6275912;22;20003;-77
2023/03/17 07:01:35;;;;;;;7.45;3.53;;;;;;;6.54;82.07;100739.41;6275472;22;20018;-79
2023/03/17 07:04:04;;;;;;;8.52;3.50;;;;;;;6.69;80.31;100737.03;6276088;22;20035;-76
2023/03/17 07:07:10;;;;;;;9.40;3.70;;;;;;;6.85;80.85;100740.50;6276393;22;20073;-80
2023/03/17 07:10:30;;;;;;;9.98;3.75;;;;;;;7.01;79.77;100745.72;6275684;22;20057;-79
2023/03/17 07:13:21;;;;;;;8.32;3.90;;;;;;;7.16;79.83;100747.53;6212754;23;20103;-78
2023/03/17 07:15:55;;;;;;;7.83;3.77;;;;;;;6.84;79.07;100675.50;6214420;23;20346;-77
2023/03/17 07:18:26;;;;;;;6.72;3.47;;;;;;;6.24;78.15;100551.13;6214367;23;20083;-76
2023/03/17 07:20:55;;;;;;;6.80;3.53;;;;;;;7.45;77.72;100740.91;6189231;23;20013;-76
2023/03/17 07:23:29;;;;;;;7.03;3.60;;;;;;;7.52;77.27;100744.00;6213588;23;20095;-78
2023/03/17 07:25:56;;;;;;;6.90;3.78;;;;;;;7.07;76.33;100660.69;6214309;23;20005;-77
2023/03/17 07:28:22;;;;;;;8.50;3.72;;;;;;;7.67;76.42;100738.91;6214342;23;20059;-78
2023/03/17 07:30:48;;;;;;;7.55;3.60;;;;;;;7.66;76.92;100728.69;6214501;23;20013;-78
2023/03/17 07:33:16;;;;;;;7.97;3.70;;;;;;;7.86;75.48;100735.34;6215014;23;20084;-78
2023/03/17 07:35:42;;;;;;;9.35;3.85;;;;;;;7.94;75.55;100731.47;6214337;23;20005;-80
2023/03/17 07:38:08;;;;;;;8.27;3.70;;;;;;;8.07;76.01;100726.50;6214368;23;20497;-79
2023/03/17 07:40:34;;;;;;;8.85;3.38;;;;;;;8.18;75.15;100715.63;6214441;23;20036;-80
2023/03/17 07:43:12;;;;;;;8.20;3.85;;;;;;;7.94;74.52;100658.63;6257327;22;20019;-79
2023/03/17 07:46:07;;;;;;;6.18;3.35;;;;;;;7.29;75.22;100539.72;6278063;22;20378;-78
2023/03/17 07:52:29;;;;;;;8.23;3.80;;;;;;;8.56;73.81;100722.09;6126740;23;20119;-77
2023/03/17 07:54:57;;;;;;;10.48;3.70;;;;;;;7.83;72.76;100610.38;6124806;23;20521;-76
2023/03/17 07:57:28;;;;;;;10.68;4.20;;;;;;;8.63;73.33;100730.28;6124772;23;20063;-79
2023/03/17 07:59:54;;;;;;;7.88;3.80;;;;;;;8.29;73.09;100659.28;6124856;23;20009;-76
2023/03/17 08:02:20;;;;;;;11.57;4.07;;;;;;;8.73;72.66;100736.56;6124880;23;20395;-77
2023/03/17 08:04:45;;;;;;;7.45;3.60;;;;;;;8.75;72.56;100733.91;6124777;23;20081;-76
2023/03/17 08:07:11;;;;;;;10.25;3.83;;;;;;;8.83;72.00;100729.16;6124578;23;20316;-76
2023/03/17 08:09:37;;;;;;;8.63;4.10;;;;;;;8.74;71.40;100722.78;6124435;23;20033;-72
2023/03/17 08:12:03;;;;;;;10.52;3.85;;;;;;;8.97;71.59;100741.25;6124315;23;20006;-76
2023/03/17 08:14:29;;;;;;;10.02;3.72;;;;;;;8.93;71.99;100726.88;6124533;23;20431;-78
2023/03/17 08:16:55;;;;;;;11.20;3.60;;;;;;;9.09;71.21;100732.81;6124894;23;20006;-76
2023/03/17 08:19:21;;;;;;;10.32;3.55;;;;;;;9.10;70.86;100730.13;6124844;23;20029;-77
2023/03/17 08:21:46;;;;;;;15.50;4.18;;;;;;;9.08;71.29;100734.56;6124276;23;20014;-77
2023/03/17 08:24:12;;;;;;;9.77;3.78;;;;;;;9.08;71.19;100744.03;6125893;23;20053;-76
2023/03/17 08:26:37;;;;;;;10.02;3.85;;;;;;;8.99;71.33;100731.69;6154040;23;20010;-77
2023/03/17 08:29:03;;;;;;;10.75;3.88;;;;;;;9.09;71.85;100733.63;6218213;22;20083;-76
2023/03/17 08:31:29;;;;;;;14.68;4.47;;;;;;;9.06;72.48;100709.81;6277597;22;20004;-79
2023/03/17 08:33:55;;;;;;;11.60;4.13;;;;;;;9.02;72.18;100683.38;6276925;22;20015;-76
2023/03/17 08:36:22;;;;;;;9.95;4.45;;;;;;;9.41;71.20;100731.72;6276937;22;20015;-75
2023/03/17 08:38:48;;;;;;;12.10;4.15;;;;;;;9.55;70.76;100730.09;6275621;22;20298;-74
2023/03/17 08:41:27;;;;;;;13.82;4.10;;;;;;;8.66;70.49;100567.13;6267995;22;20020;-76
2023/03/17 08:44:17;;;;;;;10.55;3.90;;;;;;;9.77;70.52;100722.72;6285109;22;20039;-78
2023/03/17 08:52:27;;;;;;;9.55;3.80;;;;;;;8.87;68.36;100535.78;6306656;22;20015;-78
2023/03/17 08:54:59;;;;;;;9.48;4.22;;;;;;;8.84;69.25;100523.06;6307237;22;20073;-76
2023/03/17 08:57:58;;;;;;;10.45;4.38;;;;;;;9.84;69.21;100676.75;6307732;22;19999;-77
2023/03/17 09:00:39;;;;;;;9.85;3.95;;;;;;;9.87;69.01;100658.50;6254079;22;20011;-73
2023/03/17 09:03:14;;;;;;;10.68;4.30;;;;;;;9.28;68.15;100540.13;6307650;22;20086;-78
2023/03/17 09:05:42;;;;;;;10.52;4.47;;;;;;;9.58;66.88;100575.22;6307374;22;20030;-77
2023/03/17 09:08:28;;;;;;;13.73;5.03;;;;;;;9.59;68.04;100525.31;6279319;22;20371;-75
2023/03/17 09:14:00;;;;;;;8.65;4.10;;;;;;;10.78;65.52;100649.16;6277038;22;20019;-75
2023/03/17 09:16:59;;;;;;;12.68;4.53;;;;;;;10.20;65.98;100534.22;6276857;22;20004;-76
2023/03/17 09:19:40;;;;;;;11.88;4.47;;;;;;;10.63;65.48;100570.97;6231726;22;20011;-77
2023/03/17 09:22:35;;;;;;;8.77;4.03;;;;;;;10.58;64.03;100542.88;6277102;22;20010;-76
2023/03/17 09:25:12;;;;;;;12.40;4.72;;;;;;;11.27;63.92;100638.91;6276709;22;20003;-77
2023/03/17 09:28:23;;;;;;;9.85;3.90;;;;;;;10.60;63.60;100501.44;6276646;22;19996;-77
2023/03/17 09:31:22;;;;;;;13.33;4.40;;;;;;;11.97;63.45;100700.44;6277008;22;20011;-75
2023/03/17 09:33:54;;;;;;;9.52;3.97;;;;;;;11.66;61.99;100642.25;6275985;22;20009;-75
2023/03/17 09:36:23;;;;;;;8.65;3.90;;;;;;;11.08;62.61;100535.16;6273418;22;20048;-75
2023/03/17 09:39:13;;;;;;;15.77;3.88;;;;;;;12.34;62.87;100716.78;6276285;22;20008;-75
2023/03/17 09:42:15;;;;;;;10.43;4.05;;;;;;;12.53;62.52;100704.16;6276362;22;20351;-76
2023/03/17 09:50:34;;;;;;;7.75;3.33;;;;;;;12.71;60.90;100699.38;6224828;23;20020;-76
2023/03/17 09:53:21;;;;;;;9.57;3.80;;;;;;;12.05;60.82;100612.75;6215845;23;20013;-74
2023/03/17 09:56:26;;;;;;;7.65;3.70;;;;;;;11.56;61.00;100555.91;6215716;23;20009;-76
2023/03/17 09:58:58;;;;;;;7.18;3.03;;;;;;;12.51;61.25;100720.75;6212137;23;20009;-75
2023/03/17 10:01:24;;;;;;;7.80;3.63;;;;;;;12.46;60.86;100713.28;6215872;23;20336;-78
2023/03/17 10:03:50;;;;;;;8.80;4.05;;;;;;;12.50;61.84;100717.34;6215247;23;20333;-77
2023/03/17 10:06:33;;;;;;;10.07;3.83;;;;;;;12.56;62.27;100718.63;6215861;23;20000;-75
2023/03/17 10:09:06;;;;;;;10.07;3.88;;;;;;;12.59;60.23;100721.03;6215519;23;20427;-76
2023/03/17 10:12:07;;;;;;;11.30;4.40;;;;;;;12.61;60.53;100735.50;6215694;23;20011;-80
2023/03/17 10:15:01;;;;;;;9.23;3.92;;;;;;;12.59;61.52;100747.75;6065756;23;20131;-76
2023/03/17 10:17:33;;;;;;;7.60;3.80;;;;;;;12.48;62.13;100713.19;6065221;23;20026;-74
2023/03/17 10:20:10;;;;;;;8.63;3.58;;;;;;;12.77;62.18;100744.72;6065722;23;20013;-75
2023/03/17 10:22:41;;;;;;;9.68;3.78;;;;;;;12.77;61.56;100744.72;6065587;23;20050;-77
2023/03/17 10:25:16;;;;;;;15.10;4.80;;;;;;;12.69;61.61;100750.50;6065474;23;20349;-77
2023/03/17 10:27:49;;;;;;;7.90;4.03;;;;;;;12.56;62.13;100745.34;6065276;23;20034;-77
2023/03/17 10:30:20;;;;;;;10.65;5.00;;;;;;;12.64;63.04;100768.94;6065231;23;20010;-76
2023/03/17 10:32:47;;;;;;;;;;;;;;;12.75;63.49;100760.41;6065830;23;20017;-77
2023/03/17 10:35:14;;;;;;;6.72;3.58;;;;;;;12.60;62.92;100736.44;6065331;23;19909;-77
2023/03/17 10:37:41;;;;;;;8.07;3.65;;;;;;;12.80;61.45;100755.72;6065263;23;20010;-77
2023/03/17 10:40:24;;;;;;;10.57;3.58;;;;;;;13.00;63.41;100756.00;6065431;23;20346;-79
2023/03/17 10:43:09;;;;;;;7.25;4.07;;;;;;;13.17;62.39;100758.16;6063456;23;20356;-80
2023/03/17 10:45:39;;;;;;;8.38;4.07;;;;;;;13.29;62.48;100766.84;6065716;23;20007;-76
2023/03/17 10:48:09;;;;;;;10.25;4.10;;;;;;;13.46;60.83;100766.38;6064888;23;20007;-76
2023/03/17 10:50:36;;;;;;;7.03;3.78;;;;;;;13.69;61.04;100757.66;6123321;23;20067;-78
2023/03/17 10:53:06;;;;;;;6.53;3.60;;;;;;;13.93;60.67;100765.31;6186422;23;20338;-79
2023/03/17 10:55:39;;;;;;;7.55;3.83;;;;;;;14.01;58.50;100738.75;6188513;23;20012;-79
2023/03/17 10:58:14;;;;;;;9.32;3.20;;;;;;;14.25;58.01;100744.59;6214164;23;20375;-74
2023/03/17 11:00:57;;;;;;;8.13;3.63;;;;;;;14.11;58.24;100699.91;6214856;23;20001;-76
2023/03/17 11:03:26;;;;;;;10.98;3.70;;;;;;;14.48;57.50;100736.78;6214770;23;20036;-78
2023/03/17 11:06:00;;;;;;;9.02;3.35;;;;;;;14.51;58.35;100707.94;6214994;23;20005;-75
2023/03/17 11:08:34;;;;;;;7.35;3.28;;;;;;;14.81;56.64;100731.41;6214665;23;20426;-76
2023/03/17 11:11:03;;;;;;;6.38;2.83;;;;;;;15.01;55.74;100734.16;6215225;23;20080;-79
2023/03/17 11:13:29;;;;;;;8.13;3.60;;;;;;;15.05;56.10;100732.97;6214625;23;20077;-79
2023/03/17 11:16:09;;;;;;;7.07;3.30;;;;;;;14.97;55.47;100707.59;6188003;23;20441;-75
2023/03/17 11:18:36;;;;;;;6.97;3.00;;;;;;;15.15;58.00;100728.63;6214857;23;20430;-77
2023/03/17 11:21:23;;;;;;;7.18;3.38;;;;;;;15.09;55.63;100708.34;6215039;23;20005;-76
2023/03/17 11:23:57;;;;;;;8.05;3.10;;;;;;;14.91;55.64;100688.09;6214852;23;20015;-75
2023/03/17 11:26:32;;;;;;;7.28;3.42;;;;;;;14.95;53.61;100714.69;6214502;23;20817;-78
2023/03/17 11:29:21;;;;;;;8.60;3.42;;;;;;;14.90;55.21;100706.44;6214608;23;20001;-76
2023/03/17 11:32:17;;;;;;;8.00;3.65;;;;;;;14.75;55.07;100705.94;6188446;23;20012;-75
2023/03/17 11:35:27;;;;;;;21.38;3.67;;;;;;;14.68;57.33;100710.00;6214500;23;20011;-76
2023/03/17 11:38:03;;;;;;;7.40;3.50;;;;;;;14.68;57.49;100722.16;6213790;23;20383;-77
2023/03/17 11:40:31;;;;;;;8.40;3.33;;;;;;;14.72;56.08;100724.38;6214811;23;20008;-77
2023/03/17 11:43:19;;;;;;;7.32;3.25;;;;;;;14.81;57.19;100717.59;6213552;23;20096;-75
2023/03/17 11:46:10;;;;;;;7.22;3.30;;;;;;;14.81;56.53;100718.41;6214748;23;20032;-75
2023/03/17 11:48:51;;;;;;;;;;;;;;;14.91;57.58;100719.31;6214069;23;20017;-79
2023/03/17 11:51:38;;;;;;;5.20;3.25;;;;;;;15.00;57.37;100709.09;6215221;23;19954;-77
2023/03/17 11:54:27;;;;;;;9.35;3.20;;;;;;;15.09;57.19;100706.56;6214579;23;20371;-78
2023/03/17 11:56:54;;;;;;;9.55;3.60;;;;;;;15.07;53.41;100695.47;6214830;23;20423;-75
2023/03/17 11:59:25;;;;;;;8.57;3.47;;;;;;;15.17;55.89;100693.75;6215439;23;20001;-77
2023/03/17 12:02:20;;;;;;;;;;;;;;;15.32;58.01;100683.78;6188874;23;20000;-77
2023/03/17 12:04:57;;;;;;;9.27;3.60;;;;;;;15.48;56.86;100689.34;6095372;23;19916;-76
2023/03/17 12:07:27;;;;;;;9.32;3.45;;;;;;;15.53;56.02;100677.72;6095092;23;20396;-76
2023/03/17 12:10:36;;;;;;;8.60;3.83;;;;;;;15.70;55.75;100682.31;6095139;23;20013;-77
2023/03/17 12:13:32;;;;;;;6.03;3.50;;;;;;;15.86;56.75;100698.25;6094884;23;20448;-79
2023/03/17 12:16:09;;;;;;;7.45;3.58;;;;;;;15.99;54.96;100687.59;6093772;23;20083;-76
2023/03/17 12:18:38;;;;;;;8.43;3.50;;;;;;;16.12;55.00;100688.16;6095398;23;20014;-77
2023/03/17 12:21:19;;;;;;;6.82;3.80;;;;;;;16.20;55.03;100684.88;6094699;23;20006;-78
2023/03/17 12:23:51;;;;;;;7.10;3.60;;;;;;;16.27;53.84;100684.19;6094915;23;20476;-77